sensor_id;sensor_type;location;lat;lon;timestamp;pressure;altitude;pressure_sealevel;temperature;humidity
64933;BME280;51446;53.850;10.662;2023-04-05T00:00:08;102566.22;;;-0.02;100.00
64933;BME280;51446;53.850;10.662;2023-04-05T00:02:34;102570.47;;;-0.13;100.00
64933;BME280;51446;53.850;10.662;2023-04-05T00:05:02;102555.81;;;-0.52;100.00
64933;BME280;51446;53.850;10.662;2023-04-05T00:07:27;102558.06;;;-0.65;100.00
64933;BME280;51446;53.850;10.662;2023-04-05T00:09:52;102568.13;;;-0.39;100.00
64933;BME280;51446;53.850;10.662;2023-04-05T00:12:18;102556.28;;;-0.37;100.00
64933;BME280;51446;53.850;10.662;2023-04-05T00:14:44;102555.28;;;-0.58;100.00
64933;BME280;51446;53.850;10.662;2023-04-05T00:17:09;102565.09;;;-0.54;100.00
64933;BME280;51446;53.850;10.662;2023-04-05T00:19:35;102568.38;;;-0.84;100.00
64933;BME280;51446;53.850;10.662;2023-04-05T00:22:02;102568.13;;;-0.88;100.00
64933;BME280;51446;53.850;10.662;2023-04-05T00:24:27;102564.56;;;-0.60;100.00
64933;BME280;51446;53.850;10.662;2023-04-05T00:26:53;102564.13;;;-0.65;100.00
64933;BME280;51446;53.850;10.662;2023-04-05T00:29:19;102557.59;;;-0.61;100.00
64933;BME280;51446;53.850;10.662;2023-04-05T00:31:44;102560.59;;;-0.76;100.00
64933;BME280;51446;53.850;10.662;2023-04-05T00:34:09;102562.47;;;-0.83;100.00
64933;BME280;51446;53.850;10.662;2023-04-05T00:36:36;102566.56;;;-0.85;100.00
64933;BME280;51446;53.850;10.662;2023-04-05T00:39:02;102555.13;;;-0.60;100.00
64933;BME280;51446;53.850;10.662;2023-04-05T00:41:27;102553.13;;;-0.73;100.00
64933;BME280;51446;53.850;10.662;2023-04-05T00:43:52;102557.97;;;-0.57;100.00
64933;BME280;51446;53.850;10.662;2023-04-05T00:46:18;102555.97;;;-0.70;100.00
64933;BME280;51446;53.850;10.662;2023-04-05T00:48:43;102554.53;;;-0.95;100.00
64933;BME280;51446;53.850;10.662;2023-04-05T00:51:09;102558.97;;;-0.84;100.00
64933;BME280;51446;53.850;10.662;2023-04-05T00:53:36;102548.81;;;-0.82;100.00
64933;BME280;51446;53.850;10.662;2023-04-05T00:56:02;102551.53;;;-0.81;100.00
64933;BME280;51446;53.850;10.662;2023-04-05T00:58:28;102552.78;;;-0.67;100.00
64933;BME280;51446;53.850;10.662;2023-04-05T01:01:06;102548.88;;;-0.53;100.00
64933;BME280;51446;53.850;10.662;2023-04-05T01:03:40;102546.66;;;-0.29;100.00
64933;BME280;51446;53.850;10.662;2023-04-05T01:06:21;102546.91;;;-0.26;100.00
64933;BME280;51446;53.850;10.662;2023-04-05T01:09:03;102536.69;;;-0.35;100.00
64933;BME280;51446;53.850;10.662;2023-04-05T01:11:31;102538.31;;;-0.16;100.00
64933;BME280;51446;53.850;10.662;2023-04-05T01:13:58;102533.44;;;-0.13;100.00
64933;BME280;51446;53.850;10.662;2023-04-05T01:16:24;102544.84;;;-0.30;100.00
64933;BME280;51446;53.850;10.662;2023-04-05T01:18:49;102534.81;;;-0.27;100.00
64933;BME280;51446;53.850;10.662;2023-04-05T01:24:30;102523.97;;;-0.23;100.00
64933;BME280;51446;53.850;10.662;2023-04-05T01:27:20;102520.22;;;-0.37;100.00
64933;BME280;51446;53.850;10.662;2023-04-05T01:29:52;102530.00;;;-0.62;100.00
64933;BME280;51446;53.850;10.662;2023-04-05T01:35:08;102518.34;;;-0.48;100.00
64933;BME280;51446;53.850;10.662;2023-04-05T01:37:37;102520.84;;;-0.69;100.00
64933;BME280;51446;53.850;10.662;2023-04-05T01:40:04;102516.97;;;-0.64;100.00
64933;BME280;51446;53.850;10.662;2023-04-05T01:42:30;102510.66;;;-0.87;100.00
64933;BME280;51446;53.850;10.662;2023-04-05T01:44:56;102505.09;;;-0.91;100.00
64933;BME280;51446;53.850;10.662;2023-04-05T01:47:22;102513.03;;;-0.98;100.00
64933;BME280;51446;53.850;10.662;2023-04-05T01:49:47;102503.25;;;-0.83;100.00
64933;BME280;51446;53.850;10.662;2023-04-05T01:52:13;102501.28;;;-0.86;100.00
64933;BME280;51446;53.850;10.662;2023-04-05T01:54:38;102496.94;;;-0.77;100.00
64933;BME280;51446;53.850;10.662;2023-04-05T01:57:04;102495.88;;;-0.89;100.00
64933;BME280;51446;53.850;10.662;2023-04-05T01:59:29;102495.06;;;-0.88;100.00
64933;BME280;51446;53.850;10.662;2023-04-05T02:01:55;102488.84;;;-1.00;100.00
64933;BME280;51446;53.850;10.662;2023-04-05T02:04:20;102488.44;;;-1.05;100.00
64933;BME280;51446;53.850;10.662;2023-04-05T02:06:45;102487.63;;;-1.04;100.00
64933;BME280;51446;53.850;10.662;2023-04-05T02:09:10;102489.59;;;-1.01;100.00
64933;BME280;51446;53.850;10.662;2023-04-05T02:11:36;102482.22;;;-1.07;100.00
64933;BME280;51446;53.850;10.662;2023-04-05T02:14:01;102488.13;;;-1.08;100.00
64933;BME280;51446;53.850;10.662;2023-04-05T02:16:28;102481.25;;;-1.18;100.00
64933;BME280;51446;53.850;10.662;2023-04-05T02:18:57;102481.25;;;-1.18;100.00
64933;BME280;51446;53.850;10.662;2023-04-05T02:21:24;102483.91;;;-1.27;100.00
64933;BME280;51446;53.850;10.662;2023-04-05T02:23:51;102484.53;;;-1.29;100.00
64933;BME280;51446;53.850;10.662;2023-04-05T02:26:16;102484.72;;;-0.98;100.00
64933;BME280;51446;53.850;10.662;2023-04-05T02:28:41;102485.75;;;-1.15;100.00
64933;BME280;51446;53.850;10.662;2023-04-05T02:31:10;102484.31;;;-1.22;100.00
64933;BME280;51446;53.850;10.662;2023-04-05T02:33:37;102482.69;;;-1.11;100.00
64933;BME280;51446;53.850;10.662;2023-04-05T02:36:10;102479.59;;;-1.17;100.00
64933;BME280;51446;53.850;10.662;2023-04-05T02:38:36;102470.84;;;-1.19;100.00
64933;BME280;51446;53.850;10.662;2023-04-05T02:41:01;102476.25;;;-1.16;100.00
64933;BME280;51446;53.850;10.662;2023-04-05T02:43:27;102480.72;;;-1.05;100.00
64933;BME280;51446;53.850;10.662;2023-04-05T02:45:53;102474.06;;;-0.93;100.00
64933;BME280;51446;53.850;10.662;2023-04-05T02:48:18;102479.25;;;-0.82;100.00
64933;BME280;51446;53.850;10.662;2023-04-05T02:50:47;102474.13;;;-0.82;100.00
64933;BME280;51446;53.850;10.662;2023-04-05T02:53:14;102470.16;;;-0.79;100.00
64933;BME280;51446;53.850;10.662;2023-04-05T02:55:39;102467.72;;;-0.77;100.00
64933;BME280;51446;53.850;10.662;2023-04-05T02:58:06;102461.63;;;-0.59;100.00
64933;BME280;51446;53.850;10.662;2023-04-05T03:00:31;102463.22;;;-0.70;100.00
64933;BME280;51446;53.850;10.662;2023-04-05T03:02:57;102463.72;;;-0.55;100.00
64933;BME280;51446;53.850;10.662;2023-04-05T03:05:22;102459.66;;;-0.61;100.00
64933;BME280;51446;53.850;10.662;2023-04-05T03:07:47;102459.72;;;-0.51;100.00
64933;BME280;51446;53.850;10.662;2023-04-05T03:10:14;102451.63;;;-0.35;100.00
64933;BME280;51446;53.850;10.662;2023-04-05T03:12:44;102463.41;;;-0.18;100.00
64933;BME280;51446;53.850;10.662;2023-04-05T03:15:09;102452.41;;;-0.36;100.00
64933;BME280;51446;53.850;10.662;2023-04-05T03:17:35;102446.47;;;-0.35;100.00
64933;BME280;51446;53.850;10.662;2023-04-05T03:20:01;102443.91;;;-0.35;100.00
64933;BME280;51446;53.850;10.662;2023-04-05T03:22:32;102445.97;;;-0.31;100.00
64933;BME280;51446;53.850;10.662;2023-04-05T03:24:58;102443.94;;;-0.25;100.00
64933;BME280;51446;53.850;10.662;2023-04-05T03:27:24;102438.63;;;-0.26;100.00
64933;BME280;51446;53.850;10.662;2023-04-05T03:29:50;102438.88;;;-0.33;100.00
64933;BME280;51446;53.850;10.662;2023-04-05T03:32:15;102434.31;;;-0.07;100.00
64933;BME280;51446;53.850;10.662;2023-04-05T03:34:41;102433.91;;;-0.11;100.00
64933;BME280;51446;53.850;10.662;2023-04-05T03:37:06;102438.78;;;-0.25;100.00
64933;BME280;51446;53.850;10.662;2023-04-05T03:39:31;102433.34;;;-0.28;100.00
64933;BME280;51446;53.850;10.662;2023-04-05T03:41:57;102437.63;;;-0.28;100.00
64933;BME280;51446;53.850;10.662;2023-04-05T03:44:22;102440.31;;;-0.27;100.00
64933;BME280;51446;53.850;10.662;2023-04-05T03:46:47;102439.28;;;-0.29;100.00
64933;BME280;51446;53.850;10.662;2023-04-05T03:49:12;102442.41;;;-0.23;100.00
64933;BME280;51446;53.850;10.662;2023-04-05T03:51:38;102435.94;;;-0.28;100.00
64933;BME280;51446;53.850;10.662;2023-04-05T03:54:03;102421.16;;;0.01;100.00
64933;BME280;51446;53.850;10.662;2023-04-05T03:56:31;102419.09;;;0.07;100.00
64933;BME280;51446;53.850;10.662;2023-04-05T03:58:56;102427.91;;;-0.41;100.00
64933;BME280;51446;53.850;10.662;2023-04-05T04:01:21;102431.81;;;-0.65;100.00
64933;BME280;51446;53.850;10.662;2023-04-05T04:03:47;102414.13;;;-0.81;100.00
64933;BME280;51446;53.850;10.662;2023-04-05T04:06:12;102427.03;;;-1.00;100.00
64933;BME280;51446;53.850;10.662;2023-04-05T04:08:38;102420.50;;;-1.16;100.00
64933;BME280;51446;53.850;10.662;2023-04-05T04:11:03;102420.66;;;-1.14;100.00
64933;BME280;51446;53.850;10.662;2023-04-05T04:13:30;102421.19;;;-1.08;100.00
64933;BME280;51446;53.850;10.662;2023-04-05T04:15:56;102420.34;;;-0.98;100.00
64933;BME280;51446;53.850;10.662;2023-04-05T04:18:21;102415.84;;;-1.20;100.00
64933;BME280;51446;53.850;10.662;2023-04-05T04:20:46;102423.31;;;-1.23;100.00
64933;BME280;51446;53.850;10.662;2023-04-05T04:23:12;102418.56;;;-1.18;100.00
64933;BME280;51446;53.850;10.662;2023-04-05T04:25:38;102417.47;;;-1.31;100.00
64933;BME280;51446;53.850;10.662;2023-04-05T04:28:05;102420.53;;;-1.35;100.00
64933;BME280;51446;53.850;10.662;2023-04-05T04:30:33;102423.88;;;-1.36;100.00
64933;BME280;51446;53.850;10.662;2023-04-05T04:33:00;102424.34;;;-1.40;100.00
64933;BME280;51446;53.850;10.662;2023-04-05T04:35:28;102421.63;;;-1.23;100.00
64933;BME280;51446;53.850;10.662;2023-04-05T04:37:58;102432.56;;;-1.25;100.00
64933;BME280;51446;53.850;10.662;2023-04-05T04:40:42;102433.25;;;-1.17;100.00
64933;BME280;51446;53.850;10.662;2023-04-05T04:43:18;102429.50;;;-1.21;100.00
64933;BME280;51446;53.850;10.662;2023-04-05T04:48:12;102434.22;;;-1.45;100.00
64933;BME280;51446;53.850;10.662;2023-04-05T04:50:38;102428.66;;;-1.49;100.00
64933;BME280;51446;53.850;10.662;2023-04-05T04:53:04;102431.38;;;-1.48;100.00
64933;BME280;51446;53.850;10.662;2023-04-05T04:55:29;102429.16;;;-1.34;100.00
64933;BME280;51446;53.850;10.662;2023-04-05T04:57:57;102417.47;;;-1.31;100.00
64933;BME280;51446;53.850;10.662;2023-04-05T05:00:23;102427.16;;;-1.28;100.00
64933;BME280;51446;53.850;10.662;2023-04-05T05:02:50;102416.19;;;-1.26;100.00
64933;BME280;51446;53.850;10.662;2023-04-05T05:05:16;102424.28;;;-0.83;100.00
64933;BME280;51446;53.850;10.662;2023-04-05T05:07:41;102425.38;;;-0.31;100.00
64933;BME280;51446;53.850;10.662;2023-04-05T05:10:08;102429.13;;;-0.17;100.00
64933;BME280;51446;53.850;10.662;2023-04-05T05:12:34;102425.72;;;-0.37;100.00
64933;BME280;51446;53.850;10.662;2023-04-05T05:14:59;102414.06;;;-0.02;100.00
64933;BME280;51446;53.850;10.662;2023-04-05T05:17:24;102412.75;;;0.55;100.00
64933;BME280;51446;53.850;10.662;2023-04-05T05:19:50;102419.69;;;0.86;100.00
64933;BME280;51446;53.850;10.662;2023-04-05T05:22:16;102420.47;;;0.85;100.00
64933;BME280;51446;53.850;10.662;2023-04-05T05:24:42;102419.53;;;1.28;100.00
64933;BME280;51446;53.850;10.662;2023-04-05T05:27:08;102413.81;;;1.98;100.00
64933;BME280;51446;53.850;10.662;2023-04-05T05:29:33;102406.63;;;2.06;100.00
64933;BME280;51446;53.850;10.662;2023-04-05T05:31:58;102408.03;;;2.13;100.00
64933;BME280;51446;53.850;10.662;2023-04-05T05:34:23;102407.00;;;2.68;100.00
64933;BME280;51446;53.850;10.662;2023-04-05T05:36:49;102399.69;;;3.47;100.00
64933;BME280;51446;53.850;10.662;2023-04-05T05:39:16;102396.34;;;3.36;100.00
64933;BME280;51446;53.850;10.662;2023-04-05T05:41:42;102393.03;;;3.88;100.00
64933;BME280;51446;53.850;10.662;2023-04-05T05:44:07;102389.25;;;4.21;100.00
64933;BME280;51446;53.850;10.662;2023-04-05T05:46:33;102392.44;;;4.30;100.00
64933;BME280;51446;53.850;10.662;2023-04-05T05:48:58;102389.16;;;4.33;100.00
64933;BME280;51446;53.850;10.662;2023-04-05T05:51:23;102388.00;;;4.55;100.00
64933;BME280;51446;53.850;10.662;2023-04-05T05:53:49;102386.66;;;3.71;99.04
64933;BME280;51446;53.850;10.662;2023-04-05T05:56:14;102387.41;;;3.56;100.00
64933;BME280;51446;53.850;10.662;2023-04-05T05:58:39;102385.06;;;3.73;99.95
64933;BME280;51446;53.850;10.662;2023-04-05T06:01:05;102383.09;;;4.07;100.00
64933;BME280;51446;53.850;10.662;2023-04-05T06:03:31;102380.03;;;4.26;94.95
64933;BME280;51446;53.850;10.662;2023-04-05T06:05:58;102377.72;;;4.83;89.19
64933;BME280;51446;53.850;10.662;2023-04-05T06:08:24;102383.25;;;5.71;88.45
64933;BME280;51446;53.850;10.662;2023-04-05T06:10:51;102376.63;;;6.04;81.73
64933;BME280;51446;53.850;10.662;2023-04-05T06:13:17;102369.84;;;5.93;82.09
64933;BME280;51446;53.850;10.662;2023-04-05T06:15:42;102368.66;;;6.76;76.22
64933;BME280;51446;53.850;10.662;2023-04-05T06:18:07;102367.06;;;7.26;72.63
64933;BME280;51446;53.850;10.662;2023-04-05T06:20:33;102357.94;;;7.84;65.81
64933;BME280;51446;53.850;10.662;2023-04-05T06:22:59;102351.66;;;8.31;61.43
64933;BME280;51446;53.850;10.662;2023-04-05T06:25:25;102360.63;;;8.71;58.36
64933;BME280;51446;53.850;10.662;2023-04-05T06:27:50;102359.78;;;8.19;58.90
64933;BME280;51446;53.850;10.662;2023-04-05T06:30:15;102357.09;;;8.18;61.58
64933;BME280;51446;53.850;10.662;2023-04-05T06:32:41;102355.44;;;9.26;56.19
64933;BME280;51446;53.850;10.662;2023-04-05T06:35:06;102358.41;;;9.34;54.97
64933;BME280;51446;53.850;10.662;2023-04-05T06:37:32;102351.53;;;9.55;53.92
64933;BME280;51446;53.850;10.662;2023-04-05T06:39:58;102341.84;;;10.76;49.88
64933;BME280;51446;53.850;10.662;2023-04-05T06:42:23;102344.19;;;10.48;49.41
64933;BME280;51446;53.850;10.662;2023-04-05T06:44:48;102345.31;;;10.33;50.11
64933;BME280;51446;53.850;10.662;2023-04-05T06:47:14;102345.81;;;11.57;47.75
64933;BME280;51446;53.850;10.662;2023-04-05T06:49:39;102343.72;;;11.24;48.20
64933;BME280;51446;53.850;10.662;2023-04-05T06:52:04;102331.25;;;11.66;46.85
64933;BME280;51446;53.850;10.662;2023-04-05T06:54:36;102325.63;;;10.87;46.82
64933;BME280;51446;53.850;10.662;2023-04-05T06:57:01;102334.91;;;12.19;44.87
64933;BME280;51446;53.850;10.662;2023-04-05T06:59:27;102336.91;;;12.26;43.33
64933;BME280;51446;53.850;10.662;2023-04-05T07:01:53;102330.22;;;12.10;43.54
64933;BME280;51446;53.850;10.662;2023-04-05T07:04:19;102337.38;;;11.90;44.82
64933;BME280;51446;53.850;10.662;2023-04-05T07:06:44;102336.44;;;11.64;44.56
64933;BME280;51446;53.850;10.662;2023-04-05T07:09:09;102325.16;;;12.17;44.09
64933;BME280;51446;53.850;10.662;2023-04-05T07:11:35;102326.06;;;12.99;41.61
64933;BME280;51446;53.850;10.662;2023-04-05T07:14:00;102325.50;;;13.68;39.99
64933;BME280;51446;53.850;10.662;2023-04-05T07:16:26;102325.13;;;14.21;39.73
64933;BME280;51446;53.850;10.662;2023-04-05T07:18:51;102336.66;;;13.60;38.86
64933;BME280;51446;53.850;10.662;2023-04-05T07:21:16;102335.03;;;11.50;44.08
64933;BME280;51446;53.850;10.662;2023-04-05T07:23:41;102342.44;;;10.69;48.17
64933;BME280;51446;53.850;10.662;2023-04-05T07:26:07;102343.31;;;9.87;49.48
64933;BME280;51446;53.850;10.662;2023-04-05T07:28:32;102332.34;;;10.17;51.70
64933;BME280;51446;53.850;10.662;2023-04-05T07:31:00;102343.28;;;8.91;54.52
64933;BME280;51446;53.850;10.662;2023-04-05T07:33:25;102333.28;;;10.17;52.72
64933;BME280;51446;53.850;10.662;2023-04-05T07:35:54;102319.63;;;11.12;51.80
64933;BME280;51446;53.850;10.662;2023-04-05T07:38:20;102325.75;;;10.90;51.62
64933;BME280;51446;53.850;10.662;2023-04-05T07:40:49;102325.81;;;10.69;52.30
64933;BME280;51446;53.850;10.662;2023-04-05T07:43:15;102341.88;;;9.35;56.20
64933;BME280;51446;53.850;10.662;2023-04-05T07:45:40;102339.34;;;9.18;64.16
64933;BME280;51446;53.850;10.662;2023-04-05T07:48:05;102330.69;;;9.39;63.24
64933;BME280;51446;53.850;10.662;2023-04-05T07:50:31;102334.19;;;10.60;60.71
64933;BME280;51446;53.850;10.662;2023-04-05T07:52:56;102339.41;;;9.77;63.87
64933;BME280;51446;53.850;10.662;2023-04-05T07:55:21;102333.41;;;9.41;67.24
64933;BME280;51446;53.850;10.662;2023-04-05T07:57:46;102331.84;;;9.64;65.72
64933;BME280;51446;53.850;10.662;2023-04-05T08:00:12;102338.75;;;10.43;62.97
64933;BME280;51446;53.850;10.662;2023-04-05T08:02:38;102338.50;;;9.57;64.78
64933;BME280;51446;53.850;10.662;2023-04-05T08:05:04;102331.69;;;9.41;71.37
64933;BME280;51446;53.850;10.662;2023-04-05T08:07:29;102329.66;;;10.15;68.46
64933;BME280;51446;53.850;10.662;2023-04-05T08:09:55;102326.22;;;10.36;63.00
64933;BME280;51446;53.850;10.662;2023-04-05T08:12:22;102325.66;;;10.66;59.66
64933;BME280;51446;53.850;10.662;2023-04-05T08:14:48;102328.47;;;10.28;61.05
64933;BME280;51446;53.850;10.662;2023-04-05T08:17:13;102331.53;;;10.18;59.00
64933;BME280;51446;53.850;10.662;2023-04-05T08:19:39;102335.53;;;10.10;61.59
64933;BME280;51446;53.850;10.662;2023-04-05T08:22:04;102337.50;;;8.09;77.11
64933;BME280;51446;53.850;10.662;2023-04-05T08:24:30;102331.47;;;9.56;69.31
64933;BME280;51446;53.850;10.662;2023-04-05T08:26:55;102333.19;;;9.75;66.81
64933;BME280;51446;53.850;10.662;2023-04-05T08:29:20;102331.72;;;9.82;68.25
64933;BME280;51446;53.850;10.662;2023-04-05T08:31:46;102319.06;;;8.95;70.01
64933;BME280;51446;53.850;10.662;2023-04-05T08:34:11;102326.78;;;9.29;72.47
64933;BME280;51446;53.850;10.662;2023-04-05T08:36:36;102330.41;;;9.92;62.93
64933;BME280;51446;53.850;10.662;2023-04-05T08:39:02;102328.63;;;9.90;65.41
64933;BME280;51446;53.850;10.662;2023-04-05T08:41:40;102318.94;;;11.18;58.25
64933;BME280;51446;53.850;10.662;2023-04-05T08:44:08;102313.63;;;11.63;57.84
64933;BME280;51446;53.850;10.662;2023-04-05T08:46:34;102321.06;;;11.04;58.39
64933;BME280;51446;53.850;10.662;2023-04-05T08:49:06;102312.34;;;10.82;56.90
64933;BME280;51446;53.850;10.662;2023-04-05T08:51:32;102320.38;;;9.81;60.18
64933;BME280;51446;53.850;10.662;2023-04-05T08:53:58;102306.75;;;11.42;57.32
64933;BME280;51446;53.850;10.662;2023-04-05T08:56:31;102306.88;;;11.45;56.32
64933;BME280;51446;53.850;10.662;2023-04-05T08:59:00;102297.91;;;11.65;54.98
64933;BME280;51446;53.850;10.662;2023-04-05T09:01:28;102301.53;;;10.74;54.71
64933;BME280;51446;53.850;10.662;2023-04-05T09:03:55;102298.97;;;11.94;53.69
64933;BME280;51446;53.850;10.662;2023-04-05T09:06:21;102295.16;;;12.37;51.51
64933;BME280;51446;53.850;10.662;2023-04-05T09:08:47;102298.97;;;11.21;52.43
64933;BME280;51446;53.850;10.662;2023-04-05T09:11:14;102305.38;;;10.39;53.22
64933;BME280;51446;53.850;10.662;2023-04-05T09:13:40;102307.06;;;9.77;56.06
64933;BME280;51446;53.850;10.662;2023-04-05T09:16:06;102304.13;;;10.52;55.19
64933;BME280;51446;53.850;10.662;2023-04-05T09:18:31;102298.53;;;10.65;54.21
64933;BME280;51446;53.850;10.662;2023-04-05T09:21:04;102294.81;;;11.04;52.07
64933;BME280;51446;53.850;10.662;2023-04-05T09:23:30;102286.97;;;11.28;51.70
64933;BME280;51446;53.850;10.662;2023-04-05T09:25:55;102298.69;;;11.38;50.90
64933;BME280;51446;53.850;10.662;2023-04-05T09:28:21;102294.66;;;11.23;51.76
64933;BME280;51446;53.850;10.662;2023-04-05T09:30:46;102289.75;;;12.60;48.08
64933;BME280;51446;53.850;10.662;2023-04-05T09:33:17;102295.28;;;11.40;50.69
64933;BME280;51446;53.850;10.662;2023-04-05T09:35:43;102289.19;;;12.15;50.03
64933;BME280;51446;53.850;10.662;2023-04-05T09:38:09;102288.25;;;12.13;49.65
64933;BME280;51446;53.850;10.662;2023-04-05T09:40:48;102289.97;;;11.63;50.94
64933;BME280;51446;53.850;10.662;2023-04-05T09:43:34;102284.53;;;12.61;48.64
64933;BME280;51446;53.850;10.662;2023-04-05T09:45:59;102287.81;;;11.51;50.58
64933;BME280;51446;53.850;10.662;2023-04-05T09:48:44;102281.34;;;12.72;49.11
64933;BME280;51446;53.850;10.662;2023-04-05T09:51:10;102284.31;;;12.82;47.40
64933;BME280;51446;53.850;10.662;2023-04-05T09:53:36;102266.03;;;14.88;42.45
64933;BME280;51446;53.850;10.662;2023-04-05T09:56:08;102270.81;;;14.30;42.93
64933;BME280;51446;53.850;10.662;2023-04-05T09:58:35;102270.00;;;13.33;45.17
64933;BME280;51446;53.850;10.662;2023-04-05T10:01:03;102275.31;;;11.21;49.52
64933;BME280;51446;53.850;10.662;2023-04-05T10:03:28;102275.22;;;11.92;47.17
64933;BME280;51446;53.850;10.662;2023-04-05T10:05:54;102263.31;;;11.52;48.62
64933;BME280;51446;53.850;10.662;2023-04-05T10:08:21;102264.50;;;10.89;49.93
64933;BME280;51446;53.850;10.662;2023-04-05T10:10:48;102273.28;;;10.25;51.05
64933;BME280;51446;53.850;10.662;2023-04-05T10:13:16;102259.81;;;10.81;51.00
64933;BME280;51446;53.850;10.662;2023-04-05T10:15:45;102265.38;;;11.13;52.06
64933;BME280;51446;53.850;10.662;2023-04-05T10:18:17;102261.38;;;9.70;53.32
64933;BME280;51446;53.850;10.662;2023-04-05T10:20:49;102267.53;;;9.31;56.82
64933;BME280;51446;53.850;10.662;2023-04-05T10:23:25;102249.06;;;11.70;47.34
64933;BME280;51446;53.850;10.662;2023-04-05T10:28:29;102248.78;;;11.88;44.90
64933;BME280;51446;53.850;10.662;2023-04-05T10:33:33;102237.16;;;13.21;45.19
64933;BME280;51446;53.850;10.662;2023-04-05T10:36:31;102225.59;;;14.90;39.58
64933;BME280;51446;53.850;10.662;2023-04-05T10:39:08;102231.59;;;12.51;42.86
64933;BME280;51446;53.850;10.662;2023-04-05T10:41:41;102231.28;;;13.31;43.08
64933;BME280;51446;53.850;10.662;2023-04-05T10:44:11;102220.88;;;14.01;42.99
64933;BME280;51446;53.850;10.662;2023-04-05T10:46:39;102225.97;;;15.09;40.41
64933;BME280;51446;53.850;10.662;2023-04-05T10:49:28;102211.81;;;15.53;37.08
64933;BME280;51446;53.850;10.662;2023-04-05T10:51:55;102217.66;;;16.36;35.27
64933;BME280;51446;53.850;10.662;2023-04-05T10:54:21;102205.44;;;14.56;37.10
64933;BME280;51446;53.850;10.662;2023-04-05T10:56:47;102218.88;;;14.29;38.73
64933;BME280;51446;53.850;10.662;2023-04-05T10:59:12;102222.38;;;12.65;41.51
64933;BME280;51446;53.850;10.662;2023-04-05T11:01:39;102208.41;;;14.68;38.57
64933;BME280;51446;53.850;10.662;2023-04-05T11:04:15;102202.09;;;15.49;37.16
64933;BME280;51446;53.850;10.662;2023-04-05T11:06:41;102200.88;;;14.87;38.67
64933;BME280;51446;53.850;10.662;2023-04-05T11:09:17;102194.34;;;17.46;34.79
64933;BME280;51446;53.850;10.662;2023-04-05T11:11:48;102197.91;;;15.61;34.91
64933;BME280;51446;53.850;10.662;2023-04-05T11:16:57;102188.72;;;15.91;34.97
64933;BME280;51446;53.850;10.662;2023-04-05T11:22:07;102176.94;;;15.72;36.53
64933;BME280;51446;53.850;10.662;2023-04-05T11:24:54;102182.91;;;14.70;38.62
64933;BME280;51446;53.850;10.662;2023-04-05T11:27:24;102182.72;;;13.86;38.43
64933;BME280;51446;53.850;10.662;2023-04-05T11:29:51;102192.84;;;11.40;42.66
64933;BME280;51446;53.850;10.662;2023-04-05T11:32:18;102188.41;;;12.17;41.99
64933;BME280;51446;53.850;10.662;2023-04-05T11:34:46;102176.19;;;11.40;43.35
64933;BME280;51446;53.850;10.662;2023-04-05T11:37:21;102185.59;;;12.10;44.63
64933;BME280;51446;53.850;10.662;2023-04-05T11:39:47;102167.88;;;13.57;41.60
64933;BME280;51446;53.850;10.662;2023-04-05T11:42:13;102166.09;;;13.24;38.38
64933;BME280;51446;53.850;10.662;2023-04-05T11:44:47;102164.88;;;14.13;37.28
64933;BME280;51446;53.850;10.662;2023-04-05T11:47:16;102162.00;;;13.67;37.90
64933;BME280;51446;53.850;10.662;2023-04-05T11:49:41;102164.88;;;11.68;39.89
64933;BME280;51446;53.850;10.662;2023-04-05T11:52:11;102168.34;;;12.19;40.22
64933;BME280;51446;53.850;10.662;2023-04-05T11:54:37;102156.50;;;11.53;43.56
64933;BME280;51446;53.850;10.662;2023-04-05T11:57:03;102161.13;;;11.10;45.19
64933;BME280;51446;53.850;10.662;2023-04-05T11:59:33;102154.84;;;10.35;46.80
64933;BME280;51446;53.850;10.662;2023-04-05T12:02:03;102155.41;;;10.49;43.17
64933;BME280;51446;53.850;10.662;2023-04-05T12:04:34;102153.97;;;10.57;42.74
64933;BME280;51446;53.850;10.662;2023-04-05T12:07:18;102148.78;;;10.15;46.07
64933;BME280;51446;53.850;10.662;2023-04-05T12:10:06;102143.28;;;10.30;44.91
64933;BME280;51446;53.850;10.662;2023-04-05T12:12:40;102149.22;;;9.82;45.78
64933;BME280;51446;53.850;10.662;2023-04-05T12:15:08;102150.44;;;9.48;46.24
64933;BME280;51446;53.850;10.662;2023-04-05T12:17:48;102139.25;;;9.73;44.86
64933;BME280;51446;53.850;10.662;2023-04-05T12:20:16;102134.09;;;9.54;45.62
64933;BME280;51446;53.850;10.662;2023-04-05T12:22:44;102143.47;;;9.49;45.60
64933;BME280;51446;53.850;10.662;2023-04-05T12:25:10;102141.72;;;9.48;46.37
64933;BME280;51446;53.850;10.662;2023-04-05T12:27:36;102137.16;;;9.65;44.91
64933;BME280;51446;53.850;10.662;2023-04-05T12:30:16;102132.09;;;9.90;45.67
64933;BME280;51446;53.850;10.662;2023-04-05T12:35:21;102134.50;;;9.23;49.30
64933;BME280;51446;53.850;10.662;2023-04-05T12:37:50;102129.81;;;9.56;49.30
64933;BME280;51446;53.850;10.662;2023-04-05T12:40:22;102135.81;;;9.32;49.92
64933;BME280;51446;53.850;10.662;2023-04-05T12:42:47;102132.97;;;9.68;49.58
64933;BME280;51446;53.850;10.662;2023-04-05T12:45:13;102130.06;;;9.41;51.39
64933;BME280;51446;53.850;10.662;2023-04-05T12:50:14;102129.69;;;9.53;53.54
64933;BME280;51446;53.850;10.662;2023-04-05T12:55:21;102122.69;;;10.39;51.61
64933;BME280;51446;53.850;10.662;2023-04-05T12:57:51;102125.03;;;10.33;52.88
64933;BME280;51446;53.850;10.662;2023-04-05T13:00:17;102114.38;;;10.29;52.18
64933;BME280;51446;53.850;10.662;2023-04-05T13:02:47;102112.94;;;10.59;51.34
64933;BME280;51446;53.850;10.662;2023-04-05T13:05:13;102117.94;;;9.64;53.34